createdAt,value
2022-10-08T00:03:44.067Z,8.21
2022-10-08T00:13:44.032Z,8.22
2022-10-08T00:23:43.994Z,8.25
2022-10-08T00:33:44.018Z,8.27
2022-10-08T00:43:44.002Z,8.24
2022-10-08T00:53:44.186Z,8.06
2022-10-08T01:03:43.989Z,7.72
2022-10-08T01:13:44.020Z,7.36
2022-10-08T01:23:43.985Z,7.39
2022-10-08T01:33:44.003Z,7.53
2022-10-08T01:43:43.968Z,7.45
2022-10-08T01:53:44.159Z,7.56
2022-10-08T02:03:43.974Z,7.55
2022-10-08T02:13:44.006Z,7.39
2022-10-08T02:23:43.958Z,7.45
2022-10-08T02:33:43.978Z,7.34
2022-10-08T02:43:43.976Z,7.55
2022-10-08T02:53:43.978Z,7.41
2022-10-08T03:03:44.106Z,7.35
2022-10-08T03:13:44.141Z,7.35
2022-10-08T03:23:43.981Z,7.28
2022-10-08T03:33:44.088Z,7.29
2022-10-08T03:43:43.950Z,7.47
2022-10-08T03:53:44.035Z,7.52
2022-10-08T04:03:43.943Z,7.39
2022-10-08T04:13:43.987Z,7.17
2022-10-08T04:23:43.945Z,7.12
2022-10-08T04:33:43.960Z,7.02
2022-10-08T04:43:43.933Z,6.86
2022-10-08T04:53:43.952Z,6.79
2022-10-08T05:03:43.947Z,6.75
2022-10-08T05:13:43.966Z,6.9
2022-10-08T05:23:43.932Z,6.92
2022-10-08T05:33:44.208Z,6.99
2022-10-08T05:43:43.922Z,7.24
2022-10-08T05:53:44.099Z,7.29
2022-10-08T06:03:43.925Z,7.34
2022-10-08T06:13:43.936Z,7.33
2022-10-08T06:23:44.103Z,7.56
2022-10-08T06:33:43.929Z,7.74
2022-10-08T06:43:43.911Z,7.93
2022-10-08T06:53:43.905Z,8.14
2022-10-08T07:03:43.889Z,8.47
2022-10-08T07:13:43.920Z,8.78
2022-10-08T07:23:43.885Z,9.28
2022-10-08T07:33:43.962Z,9.72
2022-10-08T07:43:43.862Z,10.04
2022-10-08T07:53:43.913Z,10.23
2022-10-08T08:03:43.873Z,10.75
2022-10-08T08:13:43.892Z,11.27
2022-10-08T08:23:43.855Z,11.85
2022-10-08T08:33:43.903Z,12.56
2022-10-08T08:43:43.836Z,12.89
2022-10-08T08:53:43.863Z,13.47
2022-10-08T09:03:43.823Z,13.92
2022-10-08T09:13:43.844Z,14.46
2022-10-08T09:23:43.826Z,14.98
2022-10-08T09:33:43.832Z,15.56
2022-10-08T09:43:43.830Z,16.29
2022-10-08T09:53:43.813Z,17.75
2022-10-08T10:03:43.814Z,19.27
2022-10-08T10:13:43.806Z,19.54
2022-10-08T10:23:43.744Z,19.96
2022-10-08T10:33:43.765Z,20.51
2022-10-08T10:43:43.726Z,20.75
2022-10-08T10:53:43.778Z,20.72
2022-10-08T11:03:43.698Z,21.01
2022-10-08T11:13:43.832Z,21.22
2022-10-08T11:23:43.693Z,21.13
2022-10-08T11:43:43.706Z,20.17
2022-10-08T11:53:43.749Z,20.06
2022-10-08T12:03:43.754Z,19.7
2022-10-08T12:13:43.662Z,19.69
2022-10-08T12:23:43.668Z,19.81
2022-10-08T12:33:43.642Z,19.89
2022-10-08T12:43:43.634Z,20
2022-10-08T12:53:43.613Z,20.19
2022-10-08T13:03:43.641Z,20.26
2022-10-08T13:13:43.593Z,20.31
2022-10-08T13:23:43.614Z,20.37
2022-10-08T13:33:43.579Z,20.44
2022-10-08T13:43:43.589Z,20.43
2022-10-08T13:53:43.550Z,20.32
2022-10-08T14:03:43.560Z,20.33
2022-10-08T14:13:43.532Z,20.32
2022-10-08T14:23:43.566Z,20.17
2022-10-08T14:33:43.525Z,20.03
2022-10-08T14:43:43.539Z,19.95
2022-10-08T14:53:43.496Z,19.82
2022-10-08T15:03:43.553Z,19.8
2022-10-08T15:13:43.467Z,19.61
2022-10-08T15:23:43.503Z,19.48
2022-10-08T15:33:43.450Z,19.15
2022-10-08T15:43:43.461Z,18.86
2022-10-08T15:53:43.470Z,18.58
2022-10-08T16:03:43.467Z,18.26
2022-10-08T16:13:43.418Z,17.81
2022-10-08T16:23:43.441Z,17.17
2022-10-08T16:33:43.428Z,16.81
2022-10-08T16:43:43.424Z,16.19
2022-10-08T16:53:43.412Z,15.43
2022-10-08T17:03:43.419Z,15.05
2022-10-08T17:13:43.410Z,14.63
2022-10-08T17:23:43.400Z,14.37
2022-10-08T17:33:43.381Z,14.15
2022-10-08T17:43:43.379Z,13.76
2022-10-08T17:53:43.350Z,13.36
2022-10-08T18:03:43.371Z,13.13
2022-10-08T18:13:43.330Z,12.84
2022-10-08T18:23:43.356Z,12.54
2022-10-08T18:33:43.311Z,12.48
2022-10-08T18:43:43.364Z,12.28
2022-10-08T18:53:43.306Z,12.31
2022-10-08T19:03:43.323Z,12.21
2022-10-08T19:13:43.261Z,12.08
2022-10-08T19:23:43.305Z,11.93
2022-10-08T19:33:43.297Z,11.88
2022-10-08T19:43:43.341Z,11.63
2022-10-08T19:53:43.320Z,11.44
2022-10-08T20:03:43.313Z,11.35
2022-10-08T20:13:43.267Z,11.15
2022-10-08T20:23:43.279Z,11.12
2022-10-08T20:33:43.260Z,10.87
2022-10-08T20:43:43.271Z,10.93
2022-10-08T20:53:43.250Z,10.78
2022-10-08T21:03:43.273Z,10.76
2022-10-08T21:13:43.237Z,10.74
2022-10-08T21:23:43.272Z,10.86
2022-10-08T21:33:43.235Z,10.95
2022-10-08T21:43:43.258Z,11.08
2022-10-08T21:53:43.222Z,11.19
2022-10-08T22:03:43.230Z,11.17
2022-10-08T22:13:43.209Z,11.02
2022-10-08T22:23:43.232Z,10.88
2022-10-08T22:33:43.226Z,10.8
2022-10-08T22:43:43.256Z,10.71
2022-10-08T22:53:43.179Z,10.59
2022-10-08T23:03:43.236Z,10.33
2022-10-08T23:13:43.184Z,10.32
2022-10-08T23:23:43.205Z,10.39
2022-10-08T23:33:43.169Z,10.44
2022-10-08T23:43:43.343Z,10.41
2022-10-08T23:53:43.165Z,10.47
